Time;durP1;ratioP1;P1;durP2;ratioP2;P2;SDS_P1;SDS_P2;PMS_P1;PMS_P2;Temp;Humidity;BMP_temperature;BMP_pressure;BME280_temperature;BME280_humidity;BME280_pressure;Samples;Min_cycle;Max_cycle;Signal;HPM_P1;HPM_P2
2022/06/19 00:00:43;;;;;;;11.02;2.63;;;;;;;18.72;67.98;100670.63;5006751;28;20338;-71
2022/06/19 00:03:31;;;;;;;8.43;2.28;;;;;;;18.77;67.08;100665.94;5016057;28;20400;-71
2022/06/19 00:05:57;;;;;;;9.40;2.58;;;;;;;18.70;66.80;100670.91;5012322;28;20026;-71
2022/06/19 00:08:23;;;;;;;11.85;2.22;;;;;;;18.66;66.75;100660.78;5012334;28;20034;-71
2022/06/19 00:10:49;;;;;;;10.88;2.20;;;;;;;18.53;66.98;100671.28;5012616;28;20061;-71
2022/06/19 00:13:15;;;;;;;13.23;2.55;;;;;;;18.42;66.98;100658.75;4997385;28;20076;-71
2022/06/19 00:15:41;;;;;;;12.15;2.80;;;;;;;18.42;67.14;100653.28;5007917;28;20461;-71
2022/06/19 00:18:07;;;;;;;12.98;2.70;;;;;;;18.36;67.00;100640.72;4994129;28;20037;-71
2022/06/19 00:20:32;;;;;;;7.40;2.05;;;;;;;18.22;67.34;100643.22;4999081;28;20026;-71
2022/06/19 00:22:57;;;;;;;11.57;2.50;;;;;;;18.17;67.82;100649.56;5015635;28;20037;-71
2022/06/19 00:25:23;;;;;;;9.32;2.15;;;;;;;18.11;68.07;100658.88;5012016;28;20034;-71
2022/06/19 00:27:48;;;;;;;10.68;2.83;;;;;;;18.00;67.97;100660.03;5012270;28;20077;-71
2022/06/19 00:30:14;;;;;;;13.90;2.50;;;;;;;18.05;67.99;100671.78;5010596;28;20026;-71
2022/06/19 00:32:39;;;;;;;7.93;2.58;;;;;;;17.95;67.93;100685.53;5014326;28;20057;-70
2022/06/19 00:35:05;;;;;;;7.90;2.20;;;;;;;18.03;67.94;100692.34;4992539;28;20486;-71
2022/06/19 00:37:31;;;;;;;10.82;2.60;;;;;;;17.94;67.89;100683.88;4992358;28;20076;-71
2022/06/19 00:39:57;;;;;;;14.13;2.70;;;;;;;17.78;68.86;100688.53;4981105;28;20109;-71
2022/06/19 00:42:24;;;;;;;10.88;3.10;;;;;;;17.79;68.36;100690.19;5002520;28;20033;-71
2022/06/19 00:44:51;;;;;;;13.45;3.15;;;;;;;17.58;68.45;100683.91;5012489;28;20413;-72
2022/06/19 00:47:22;;;;;;;12.27;2.63;;;;;;;17.55;68.93;100673.53;5027055;28;20121;-73
2022/06/19 00:49:50;;;;;;;;;;;;;;;17.70;67.41;100683.63;5012035;28;20473;-73
2022/06/19 00:52:21;;;;;;;15.32;2.83;;;;;;;17.49;68.17;100680.91;5002960;28;19917;-71
2022/06/19 00:54:53;;;;;;;13.63;2.67;;;;;;;17.36;67.86;100682.31;4992219;28;20030;-72
2022/06/19 00:57:19;;;;;;;16.00;2.95;;;;;;;17.28;67.44;100680.13;4992080;28;20053;-72
2022/06/19 00:59:50;;;;;;;11.23;2.67;;;;;;;17.27;66.54;100689.44;4994831;28;20023;-72
2022/06/19 01:02:15;;;;;;;10.10;2.53;;;;;;;17.26;66.86;100685.03;5009549;28;20070;-70
2022/06/19 01:04:45;;;;;;;11.73;2.65;;;;;;;17.11;66.51;100679.59;5015533;28;20438;-71
2022/06/19 01:07:11;;;;;;;18.90;2.80;;;;;;;17.01;66.77;100666.72;5015400;28;20444;-72
2022/06/19 01:09:36;;;;;;;10.07;2.50;;;;;;;17.09;66.34;100662.63;5015296;28;20029;-73
2022/06/19 01:12:04;;;;;;;13.70;2.60;;;;;;;17.04;65.39;100659.91;5009047;28;20026;-70
2022/06/19 01:14:31;;;;;;;10.98;2.50;;;;;;;16.97;65.26;100668.38;4995821;28;20035;-70
2022/06/19 01:16:58;;;;;;;12.27;2.60;;;;;;;16.90;64.96;100700.63;5010898;28;20032;-71
2022/06/19 01:19:31;;;;;;;10.50;2.42;;;;;;;16.78;65.12;100780.88;4995554;28;20390;-71
2022/06/19 01:22:08;;;;;;;12.85;2.80;;;;;;;16.69;65.66;100866.38;4999245;28;20026;-71
2022/06/19 01:24:58;;;;;;;14.75;3.13;;;;;;;16.63;65.12;100819.09;4995537;28;20366;-72
2022/06/19 01:30:11;;;;;;;14.18;2.90;;;;;;;16.46;64.54;100762.75;4995390;28;20069;-73
2022/06/19 01:32:37;;;;;;;14.43;2.83;;;;;;;16.41;64.41;100817.34;5005454;28;20073;-73
2022/06/19 01:35:06;;;;;;;11.55;2.25;;;;;;;16.36;63.91;100821.97;5014812;28;20388;-73
2022/06/19 01:37:33;;;;;;;10.10;2.70;;;;;;;16.28;63.00;100761.28;5013465;28;20037;-72
2022/06/19 01:40:03;;;;;;;12.40;2.58;;;;;;;16.18;62.68;100763.16;5015064;28;20026;-75
2022/06/19 01:42:30;;;;;;;16.48;3.10;;;;;;;16.18;62.14;100836.88;5005157;28;20070;-75
2022/06/19 01:44:57;;;;;;;10.52;2.70;;;;;;;16.04;62.52;100833.78;5010295;28;20462;-74
2022/06/19 01:47:23;;;;;;;10.80;2.42;;;;;;;15.90;62.59;100774.19;4995014;28;20124;-72
2022/06/19 01:49:52;;;;;;;10.50;2.63;;;;;;;15.87;62.46;100779.34;4993881;28;20073;-73
2022/06/19 01:52:18;;;;;;;17.60;3.30;;;;;;;15.88;63.15;100816.44;5002477;28;20065;-71
2022/06/19 01:54:52;;;;;;;16.27;3.08;;;;;;;15.81;61.63;100797.56;5014762;28;20030;-72
2022/06/19 01:57:19;;;;;;;15.02;2.88;;;;;;;15.73;61.48;100798.84;5014419;28;20026;-71
2022/06/19 01:59:45;;;;;;;16.48;3.00;;;;;;;15.59;60.91;100820.31;5014609;28;20057;-71
2022/06/19 02:02:14;;;;;;;14.68;2.75;;;;;;;15.52;60.83;100799.75;5016478;28;20048;-73
2022/06/19 02:04:40;;;;;;;18.48;2.72;;;;;;;15.49;60.27;100808.44;5013904;28;20033;-73
2022/06/19 02:07:14;;;;;;;13.23;2.25;;;;;;;15.48;60.12;100817.72;5014222;28;20389;-71
2022/06/19 02:09:40;;;;;;;15.85;2.50;;;;;;;15.44;59.32;100803.78;5013489;28;20022;-72
2022/06/19 02:12:07;;;;;;;11.57;2.58;;;;;;;15.33;58.44;100805.59;4994306;28;20034;-73
2022/06/19 02:14:33;;;;;;;10.63;2.60;;;;;;;15.24;58.78;100810.66;4994455;28;20034;-71
2022/06/19 02:17:07;;;;;;;9.43;2.15;;;;;;;15.21;58.86;100796.75;5000159;28;20026;-73
2022/06/19 02:19:32;;;;;;;12.93;2.40;;;;;;;15.25;58.21;100786.97;5013952;28;20041;-72
2022/06/19 02:21:57;;;;;;;11.38;2.88;;;;;;;15.31;58.37;100793.28;5014069;28;20355;-74
2022/06/19 02:24:26;;;;;;;12.40;2.50;;;;;;;15.28;57.43;100827.34;5013889;28;20389;-71
2022/06/19 02:26:52;;;;;;;10.45;2.50;;;;;;;15.26;57.99;100821.31;5009058;28;20145;-73
2022/06/19 02:29:20;;;;;;;12.35;2.50;;;;;;;15.23;57.75;100813.66;4993812;28;20474;-70
2022/06/19 02:31:50;;;;;;;13.25;2.67;;;;;;;15.28;58.18;100824.63;4994194;28;20046;-71
2022/06/19 02:34:32;;;;;;;15.43;3.08;;;;;;;15.30;57.77;100821.66;5009606;28;20038;-71
2022/06/19 02:37:01;;;;;;;13.85;2.88;;;;;;;15.30;58.04;100833.38;5009289;28;20085;-70
2022/06/19 02:39:35;;;;;;;15.27;2.92;;;;;;;15.44;57.50;100832.97;4993748;28;20060;-73
2022/06/19 02:42:17;;;;;;;10.85;2.38;;;;;;;15.44;57.75;100835.69;4994102;28;20034;-72
2022/06/19 02:44:43;;;;;;;12.55;2.80;;;;;;;15.44;56.60;100839.22;4994513;28;20034;-71
2022/06/19 02:47:09;;;;;;;11.63;2.45;;;;;;;15.41;57.04;100824.22;4994015;28;20026;-72
2022/06/19 02:49:36;;;;;;;12.27;2.40;;;;;;;15.41;56.44;100815.19;4993715;28;20034;-71
2022/06/19 02:52:03;;;;;;;12.25;2.50;;;;;;;15.42;56.14;100809.50;4994016;28;20046;-73
2022/06/19 02:54:30;;;;;;;9.80;2.22;;;;;;;15.48;55.24;100801.38;4999794;28;20386;-73
2022/06/19 02:56:55;;;;;;;9.05;1.95;;;;;;;15.50;55.50;100827.28;5013528;28;20030;-72
2022/06/19 02:59:21;;;;;;;9.63;2.20;;;;;;;15.48;55.65;100885.91;5013317;28;20384;-72
2022/06/19 03:01:46;;;;;;;11.95;2.70;;;;;;;15.47;55.03;100925.16;5019606;28;20081;-70
2022/06/19 03:04:23;;;;;;;11.38;2.50;;;;;;;15.44;55.15;100929.22;5026645;28;20029;-74
2022/06/19 03:06:50;;;;;;;8.68;1.85;;;;;;;15.45;54.69;100878.25;5013417;28;20449;-72
2022/06/19 03:09:15;;;;;;;12.57;2.30;;;;;;;15.40;54.17;100857.19;5013377;28;20040;-71
2022/06/19 03:11:41;;;;;;;8.63;2.13;;;;;;;15.36;54.69;100842.44;5011888;28;20033;-71
2022/06/19 03:14:07;;;;;;;8.02;2.10;;;;;;;15.33;54.06;100853.84;5008831;28;20026;-74
2022/06/19 03:16:32;;;;;;;12.52;2.15;;;;;;;15.32;53.98;100842.09;5000052;28;20047;-74
2022/06/19 03:18:59;;;;;;;8.05;1.95;;;;;;;15.22;53.58;100831.13;5013247;28;20033;-71
2022/06/19 03:21:24;;;;;;;9.10;1.90;;;;;;;15.22;53.65;100810.13;5012285;28;20033;-73
2022/06/19 03:23:50;;;;;;;9.82;1.70;;;;;;;15.25;53.89;100795.16;5013186;28;20030;-73
2022/06/19 03:26:15;;;;;;;6.57;1.63;;;;;;;15.27;53.53;100794.91;5008750;28;20371;-74
2022/06/19 03:28:40;;;;;;;10.43;1.52;;;;;;;15.21;52.96;100818.56;4993234;28;20042;-72
2022/06/19 03:31:05;;;;;;;8.80;2.13;;;;;;;15.20;52.78;100833.25;4993087;28;20053;-73
2022/06/19 03:33:31;;;;;;;8.50;1.67;;;;;;;15.15;52.81;100825.84;4992933;28;20038;-71
2022/06/19 03:35:56;;;;;;;6.28;1.50;;;;;;;15.17;53.21;100795.59;4994313;28;20026;-71
2022/06/19 03:38:21;;;;;;;7.97;1.63;;;;;;;15.21;53.17;100803.00;5012820;28;20371;-72
2022/06/19 03:40:47;;;;;;;6.95;1.30;;;;;;;15.20;53.03;100800.53;5027911;28;20034;-72
2022/06/19 03:43:12;;;;;;;6.15;1.52;;;;;;;15.18;52.88;100808.16;5012647;28;20037;-70
2022/06/19 03:45:38;;;;;;;4.78;1.25;;;;;;;15.17;53.49;100746.53;5012695;28;20481;-73
2022/06/19 03:48:04;;;;;;;9.73;1.48;;;;;;;15.15;53.31;100743.25;4994159;28;20041;-73
2022/06/19 03:50:29;;;;;;;10.38;1.50;;;;;;;15.16;52.91;100764.00;4992795;28;20073;-71
2022/06/19 03:52:54;;;;;;;7.38;1.50;;;;;;;15.15;53.46;100811.41;4993107;28;20034;-73
2022/06/19 03:55:20;;;;;;;6.43;1.60;;;;;;;15.10;53.27;100898.53;4993134;28;20086;-73
2022/06/19 03:57:45;;;;;;;5.10;1.65;;;;;;;15.03;53.49;100910.47;5006993;28;20354;-70
2022/06/19 04:00:17;;;;;;;5.72;1.25;;;;;;;15.00;53.65;100883.72;5012365;28;20120;-73
2022/06/19 04:02:44;;;;;;;7.00;1.25;;;;;;;15.06;53.50;100809.13;5026382;28;20410;-73
2022/06/19 04:05:10;;;;;;;4.90;1.08;;;;;;;15.11;51.75;100835.59;5032339;28;20029;-73
2022/06/19 04:07:43;;;;;;;4.93;0.90;;;;;;;15.11;52.06;100818.44;5017853;28;20374;-71
2022/06/19 04:10:08;;;;;;;5.65;1.10;;;;;;;15.17;51.30;100795.59;5012499;28;20034;-71
2022/06/19 04:12:34;;;;;;;7.78;1.45;;;;;;;15.20;51.36;100773.28;5012301;28;20492;-73
2022/06/19 04:14:59;;;;;;;10.48;2.03;;;;;;;15.20;51.34;100748.75;5012823;28;20088;-72
2022/06/19 04:17:24;;;;;;;5.05;1.23;;;;;;;15.25;51.04;100718.84;5011534;28;20061;-71
2022/06/19 04:19:51;;;;;;;6.28;1.33;;;;;;;15.27;51.94;100708.47;5012476;28;20037;-72
2022/06/19 04:22:16;;;;;;;7.70;1.33;;;;;;;15.29;51.23;100689.13;5012163;28;20026;-73
2022/06/19 04:24:41;;;;;;;10.88;1.40;;;;;;;15.28;51.09;100665.69;5012534;28;20026;-71
2022/06/19 04:27:06;;;;;;;12.18;2.03;;;;;;;15.31;51.86;100655.09;5010635;28;20496;-72
2022/06/19 04:29:32;;;;;;;9.25;1.40;;;;;;;15.37;52.13;100648.59;5012208;28;20030;-70
2022/06/19 04:31:57;;;;;;;13.70;1.63;;;;;;;15.37;52.21;100642.31;5012304;28;20121;-72
2022/06/19 04:34:23;;;;;;;10.32;1.50;;;;;;;15.37;52.67;100645.06;5029728;28;20116;-70
2022/06/19 04:36:48;;;;;;;7.60;1.42;;;;;;;15.42;52.88;100640.44;5015241;28;20481;-72
2022/06/19 04:39:13;;;;;;;5.55;1.67;;;;;;;15.52;53.13;100652.47;5014839;28;20392;-72
2022/06/19 04:41:43;;;;;;;8.07;1.52;;;;;;;15.53;53.34;100645.94;5015833;28;20026;-73
2022/06/19 04:44:12;;;;;;;12.43;2.08;;;;;;;15.58;53.11;100643.28;5031189;28;20056;-74
2022/06/19 04:46:37;;;;;;;7.65;1.48;;;;;;;15.57;53.22;100641.63;5011106;28;20377;-72
2022/06/19 04:49:03;;;;;;;6.47;1.50;;;;;;;15.65;53.85;100632.13;5011339;28;20022;-70
2022/06/19 04:51:28;;;;;;;7.97;1.95;;;;;;;15.65;53.46;100594.75;4995963;28;20425;-71
2022/06/19 04:53:54;;;;;;;12.82;2.05;;;;;;;15.72;54.45;100594.53;4996214;28;20042;-72
2022/06/19 04:56:19;;;;;;;9.40;2.15;;;;;;;15.82;54.31;100591.03;4997881;28;20042;-71
2022/06/19 04:58:45;;;;;;;9.23;2.50;;;;;;;15.84;53.25;100586.97;5014222;28;20030;-70
2022/06/19 05:01:26;;;;;;;7.68;1.73;;;;;;;15.84;54.45;100583.41;5017097;28;20045;-73
2022/06/19 05:03:54;;;;;;;6.03;1.58;;;;;;;15.86;53.56;100597.59;5035388;28;20026;-71
2022/06/19 05:06:20;;;;;;;6.03;1.55;;;;;;;15.83;53.83;100607.13;5031201;28;20025;-71
2022/06/19 05:08:45;;;;;;;9.82;1.88;;;;;;;15.90;54.28;100634.19;4995693;28;20122;-70
2022/06/19 05:11:11;;;;;;;11.02;1.70;;;;;;;15.94;54.22;100670.75;4995910;28;20070;-72
2022/06/19 05:13:37;;;;;;;9.90;1.77;;;;;;;15.93;53.96;100680.06;4995638;28;20381;-73
2022/06/19 05:16:08;;;;;;;9.02;1.90;;;;;;;15.93;53.71;100667.22;5010898;28;20525;-74
2022/06/19 05:18:34;;;;;;;9.02;2.00;;;;;;;15.98;54.43;100647.31;5014652;28;20068;-72
2022/06/19 05:21:02;;;;;;;7.15;1.52;;;;;;;16.07;54.20;100655.81;5015024;28;20040;-71
2022/06/19 05:23:28;;;;;;;7.38;1.77;;;;;;;16.01;53.46;100671.34;5015210;28;20026;-73
2022/06/19 05:26:07;;;;;;;9.80;1.92;;;;;;;16.04;54.07;100676.28;5015226;28;20116;-70
2022/06/19 05:28:33;;;;;;;6.20;1.50;;;;;;;16.05;53.97;100704.41;4995721;28;20034;-71
2022/06/19 05:31:00;;;;;;;6.85;1.50;;;;;;;15.95;53.54;100718.81;4995121;28;20137;-71
2022/06/19 05:33:27;;;;;;;5.97;1.83;;;;;;;16.06;53.92;100728.72;5006733;28;20473;-71
2022/06/19 05:35:53;;;;;;;8.38;1.77;;;;;;;16.10;53.70;100753.56;5014764;28;20026;-73
2022/06/19 05:38:18;;;;;;;11.05;2.22;;;;;;;16.05;53.96;100778.91;5010896;28;20398;-74
2022/06/19 05:40:43;;;;;;;7.35;2.00;;;;;;;16.13;54.31;100786.59;4994782;28;20113;-72
2022/06/19 05:43:09;;;;;;;12.95;1.77;;;;;;;16.18;53.90;100788.53;4995305;28;20473;-71
2022/06/19 05:45:35;;;;;;;11.60;2.00;;;;;;;16.12;53.69;100803.25;5010883;28;20041;-71
2022/06/19 05:48:00;;;;;;;8.27;1.90;;;;;;;16.09;54.62;100801.88;4995297;28;20027;-72
2022/06/19 05:50:26;;;;;;;10.00;1.90;;;;;;;16.08;54.60;100783.84;4995230;28;20031;-71
2022/06/19 05:52:51;;;;;;;17.13;2.15;;;;;;;16.12;54.66;100767.75;4994934;28;20030;-73
2022/06/19 05:55:16;;;;;;;8.52;1.90;;;;;;;16.16;55.40;100785.25;5006151;28;20058;-72
2022/06/19 05:57:42;;;;;;;6.97;1.65;;;;;;;16.25;54.34;100821.06;5014473;28;20053;-72
2022/06/19 06:00:11;;;;;;;8.80;1.75;;;;;;;16.21;54.94;100830.88;5014620;28;20025;-73
2022/06/19 06:02:36;;;;;;;8.13;1.80;;;;;;;16.09;55.12;100826.44;5027402;28;20127;-72
2022/06/19 06:05:03;;;;;;;13.77;2.28;;;;;;;16.05;55.83;100827.22;5024353;28;20120;-71
2022/06/19 06:07:29;;;;;;;6.20;1.55;;;;;;;16.04;56.61;100831.03;5029547;28;20030;-71
2022/06/19 06:09:54;;;;;;;11.05;2.40;;;;;;;15.97;56.09;100842.16;5003131;28;20038;-73
2022/06/19 06:12:19;;;;;;;9.75;2.03;;;;;;;16.05;56.60;100877.19;4994761;28;20510;-71
2022/06/19 06:14:45;;;;;;;9.82;2.00;;;;;;;15.99;56.15;100899.22;4994461;28;20022;-70
2022/06/19 06:17:10;;;;;;;7.47;1.60;;;;;;;15.93;55.72;100879.28;4994687;28;20442;-70
2022/06/19 06:19:35;;;;;;;7.47;1.63;;;;;;;15.93;56.26;100869.16;5001763;28;20124;-70
2022/06/19 06:22:03;;;;;;;8.13;1.90;;;;;;;15.89;56.71;100880.88;5029271;28;20038;-72
2022/06/19 06:24:29;;;;;;;11.38;2.03;;;;;;;15.86;57.24;100950.41;5014176;28;20037;-71
2022/06/19 06:26:55;;;;;;;7.07;2.05;;;;;;;15.89;57.46;100969.00;5013687;28;20033;-70
2022/06/19 06:29:21;;;;;;;10.30;2.13;;;;;;;15.98;57.32;100980.28;5012527;28;20366;-73
2022/06/19 06:31:46;;;;;;;14.05;1.98;;;;;;;15.92;58.45;100989.50;5013598;28;20049;-71
2022/06/19 06:34:12;;;;;;;9.32;2.33;;;;;;;15.99;59.39;101041.13;5013915;28;20034;-73
2022/06/19 06:36:37;;;;;;;10.52;1.90;;;;;;;15.98;61.78;101083.19;5013369;28;20144;-73
2022/06/19 06:39:02;;;;;;;7.00;1.77;;;;;;;15.86;61.97;101110.59;5013116;28;20041;-73
2022/06/19 06:41:28;;;;;;;7.97;2.00;;;;;;;15.80;62.71;101097.97;5013728;28;20065;-71
2022/06/19 06:43:54;;;;;;;7.75;1.77;;;;;;;15.73;62.17;101101.69;5013537;28;20030;-73
2022/06/19 06:46:23;;;;;;;10.52;2.05;;;;;;;15.65;63.88;101107.56;5012391;28;20384;-72
2022/06/19 06:48:54;;;;;;;16.13;1.95;;;;;;;15.68;63.15;101109.78;5013494;28;20037;-73
2022/06/19 06:51:23;;;;;;;7.28;1.88;;;;;;;15.67;64.03;101094.53;5008665;28;20535;-72
2022/06/19 06:53:48;;;;;;;9.93;2.08;;;;;;;15.71;66.71;101082.00;4993779;28;20064;-70
2022/06/19 06:56:14;;;;;;;18.35;2.08;;;;;;;15.73;62.94;101074.41;5008493;28;20066;-75
2022/06/19 06:58:39;;;;;;;13.57;2.03;;;;;;;15.75;62.91;101074.97;4994090;28;20065;-73
2022/06/19 07:01:10;;;;;;;12.30;2.08;;;;;;;15.72;63.95;101061.84;4998232;28;20442;-71
2022/06/19 07:03:36;;;;;;;8.90;1.77;;;;;;;15.67;64.70;101053.59;5033635;28;20481;-71
2022/06/19 07:06:01;;;;;;;11.68;2.00;;;;;;;15.56;62.76;101065.44;5013015;28;20037;-71
2022/06/19 07:08:27;;;;;;;9.10;2.10;;;;;;;15.42;60.83;101063.09;5013294;28;20384;-71
2022/06/19 07:10:52;;;;;;;10.85;1.77;;;;;;;15.26;62.32;101065.88;5013082;28;20029;-71
2022/06/19 07:13:18;;;;;;;7.40;1.50;;;;;;;15.09;62.58;101074.06;5013168;28;20026;-71
2022/06/19 07:15:43;;;;;;;12.13;1.70;;;;;;;15.00;63.63;101101.72;5012923;28;20029;-71
2022/06/19 07:18:09;;;;;;;9.75;2.05;;;;;;;15.04;65.13;101129.34;4993542;28;20581;-70
2022/06/19 07:20:34;;;;;;;6.57;1.92;;;;;;;15.00;66.11;101117.28;4993304;28;20030;-71
2022/06/19 07:22:59;;;;;;;8.70;2.10;;;;;;;14.98;66.87;101095.72;4993068;28;20030;-71
2022/06/19 07:25:25;;;;;;;15.70;2.17;;;;;;;14.95;67.14;101073.59;5008100;28;20034;-72
2022/06/19 07:27:50;;;;;;;9.52;2.03;;;;;;;14.79;70.07;101031.66;4993121;28;20022;-71
2022/06/19 07:30:20;;;;;;;18.75;2.85;;;;;;;14.70;74.66;101025.78;4996787;28;20026;-73
2022/06/19 07:32:46;;;;;;;12.65;2.20;;;;;;;14.52;76.73;100986.00;5012188;28;20056;-71
2022/06/19 07:35:11;;;;;;;13.98;2.63;;;;;;;14.40;78.47;100964.28;5012942;28;20120;-71
2022/06/19 07:37:37;;;;;;;7.80;2.28;;;;;;;14.25;82.13;100951.28;5012745;28;20450;-72
2022/06/19 07:40:03;;;;;;;9.25;2.00;;;;;;;14.12;82.43;100940.72;5013148;28;20096;-72
2022/06/19 07:42:28;;;;;;;12.15;2.15;;;;;;;14.13;84.80;100947.78;5012833;28;20028;-72
2022/06/19 07:44:53;;;;;;;12.35;2.35;;;;;;;14.15;88.01;100905.66;5012312;28;20034;-72
2022/06/19 07:50:09;;;;;;;13.43;2.42;;;;;;;14.08;87.06;100880.50;5012557;28;20516;-72
2022/06/19 07:52:39;;;;;;;12.63;2.30;;;;;;;14.16;90.19;100966.34;5012777;28;20026;-72
2022/06/19 07:55:07;;;;;;;13.60;2.75;;;;;;;14.29;95.16;101015.00;5012683;28;20061;-72
2022/06/19 07:57:32;;;;;;;10.02;2.38;;;;;;;14.41;95.34;101057.69;5013001;28;20123;-72
2022/06/19 07:59:57;;;;;;;16.23;2.50;;;;;;;14.46;87.64;101074.09;4999277;28;20038;-72
2022/06/19 08:02:26;;;;;;;14.43;2.58;;;;;;;14.53;86.88;101061.97;5018806;28;20489;-72
2022/06/19 08:04:52;;;;;;;14.10;2.70;;;;;;;14.54;88.75;101032.88;5032197;28;20038;-72
2022/06/19 08:07:18;;;;;;;15.50;2.58;;;;;;;14.54;91.27;101016.53;5032436;28;20088;-72
2022/06/19 08:09:44;;;;;;;10.43;2.45;;;;;;;14.50;91.40;101010.75;5035080;28;20082;-72
2022/06/19 08:12:10;;;;;;;13.70;2.58;;;;;;;14.44;89.82;100989.13;5036681;28;20026;-72
2022/06/19 08:14:36;;;;;;;12.70;2.83;;;;;;;14.44;88.60;100961.91;5013142;28;20390;-71
2022/06/19 08:17:02;;;;;;;17.17;2.97;;;;;;;14.52;94.62;101018.66;5013293;28;20037;-72
2022/06/19 08:19:28;;;;;;;16.52;2.70;;;;;;;14.54;92.22;101030.16;5015142;28;20046;-72
2022/06/19 08:21:53;;;;;;;14.48;2.80;;;;;;;14.65;95.51;100991.13;5005902;28;20026;-71
2022/06/19 08:24:18;;;;;;;13.07;3.38;;;;;;;14.62;94.87;100971.75;5002724;28;20030;-75
2022/06/19 08:26:44;;;;;;;13.27;2.92;;;;;;;14.61;95.67;100989.16;4999701;28;20038;-73
2022/06/19 08:29:10;;;;;;;14.95;3.05;;;;;;;14.58;98.10;100965.94;5007920;28;20030;-72
2022/06/19 08:31:36;;;;;;;10.15;2.70;;;;;;;14.56;98.88;100954.47;5010884;28;20046;-71
2022/06/19 08:34:02;;;;;;;17.63;2.92;;;;;;;14.55;96.64;100955.53;5015408;28;20222;-71
2022/06/19 08:36:28;;;;;;;15.25;3.10;;;;;;;14.63;99.53;100937.97;5016277;28;20033;-71
2022/06/19 08:38:57;;;;;;;12.95;2.70;;;;;;;14.55;98.61;100936.47;5016030;28;20104;-70
2022/06/19 08:41:23;;;;;;;12.48;2.80;;;;;;;14.56;100.00;100926.44;4998349;28;20034;-70
2022/06/19 08:43:57;;;;;;;12.73;3.13;;;;;;;14.58;98.77;100907.94;4996359;28;20037;-70
2022/06/19 08:46:38;;;;;;;16.80;4.13;;;;;;;14.44;100.00;100863.91;4996420;28;20027;-70
2022/06/19 08:49:35;;;;;;;11.80;3.63;;;;;;;14.47;100.00;100850.59;5013777;28;20076;-70
2022/06/19 08:52:04;;;;;;;14.15;3.53;;;;;;;14.43;100.00;100867.69;5013614;28;20463;-70
2022/06/19 08:54:52;;;;;;;11.88;3.20;;;;;;;14.51;100.00;100891.78;5014278;28;20040;-70
2022/06/19 08:57:23;;;;;;;13.52;2.75;;;;;;;14.43;100.00;100897.63;5015899;28;20057;-70
2022/06/19 08:59:51;;;;;;;15.23;2.90;;;;;;;14.52;100.00;100893.41;5000159;28;20466;-72
2022/06/19 09:02:44;;;;;;;13.18;2.80;;;;;;;14.51;99.35;100897.22;5019898;28;20041;-71
2022/06/19 09:05:39;;;;;;;12.95;3.00;;;;;;;14.48;100.00;100914.06;5025826;28;20045;-71
2022/06/19 09:08:44;;;;;;;10.68;2.88;;;;;;;14.57;98.25;100936.22;5015233;28;20044;-70
2022/06/19 09:11:32;;;;;;;14.38;2.70;;;;;;;14.64;100.00;100951.34;5014093;28;20388;-71
2022/06/19 09:14:22;;;;;;;14.15;2.92;;;;;;;14.78;100.00;100967.34;5014943;28;20037;-71
2022/06/19 09:17:09;;;;;;;16.73;2.67;;;;;;;14.96;98.05;101001.66;5000027;28;20500;-72
2022/06/19 09:19:39;;;;;;;10.95;2.70;;;;;;;15.15;100.00;101043.09;4996468;28;20102;-70
2022/06/19 09:22:23;;;;;;;12.30;2.72;;;;;;;15.28;97.58;101039.16;4995405;28;20027;-71
2022/06/19 09:25:06;;;;;;;12.57;3.20;;;;;;;15.33;95.95;101036.53;4995269;28;20285;-73
2022/06/19 09:27:41;;;;;;;9.18;2.55;;;;;;;15.34;89.55;101028.09;5001045;28;20409;-73
2022/06/19 09:30:23;;;;;;;13.05;2.47;;;;;;;15.35;85.01;101020.72;5000919;28;20038;-74
2022/06/19 09:32:58;;;;;;;11.82;2.60;;;;;;;15.33;87.05;101018.25;5001314;28;20048;-72
2022/06/19 09:35:47;;;;;;;10.70;2.80;;;;;;;15.47;86.77;101017.88;4996366;28;20046;-72
2022/06/19 09:38:22;;;;;;;12.45;2.80;;;;;;;15.47;85.26;100996.88;4995748;28;20037;-72
2022/06/19 09:40:53;;;;;;;10.73;2.80;;;;;;;15.47;86.08;100983.25;5005738;28;20150;-72
2022/06/19 09:43:28;;;;;;;11.07;2.88;;;;;;;15.54;85.58;100975.69;5006832;28;20021;-73
2022/06/19 09:46:16;;;;;;;11.02;2.83;;;;;;;15.73;89.38;100957.09;5006075;28;20508;-73
2022/06/19 09:49:08;;;;;;;12.10;2.42;;;;;;;15.81;84.77;100931.28;4991362;28;20046;-73
2022/06/19 09:51:55;;;;;;;12.15;3.33;;;;;;;15.84;88.25;100938.13;5012390;28;20038;-73
2022/06/19 09:54:31;;;;;;;12.40;3.15;;;;;;;15.83;88.59;100944.66;5001770;28;20041;-73
2022/06/19 09:57:19;;;;;;;15.85;3.08;;;;;;;15.82;84.21;100945.72;5002988;28;20459;-73
2022/06/19 10:00:11;;;;;;;12.65;2.95;;;;;;;15.87;85.83;100929.44;5002810;28;20042;-71
2022/06/19 10:02:42;;;;;;;12.82;3.20;;;;;;;15.89;88.85;100922.59;5014035;28;20091;-72
2022/06/19 10:05:33;;;;;;;11.02;2.67;;;;;;;15.92;84.79;100915.81;5002520;28;20042;-73
2022/06/19 10:08:21;;;;;;;15.30;3.30;;;;;;;15.89;85.39;100911.69;5005650;28;20029;-73
2022/06/19 10:10:59;;;;;;;12.52;2.88;;;;;;;16.01;85.79;100918.91;5004848;28;20618;-75
2022/06/19 10:13:39;;;;;;;8.63;3.05;;;;;;;16.00;83.29;100892.69;5021592;28;20105;-74
2022/06/19 10:16:15;;;;;;;13.02;3.22;;;;;;;15.99;84.98;100878.22;5012566;28;20071;-74
2022/06/19 10:18:46;;;;;;;10.07;2.42;;;;;;;16.06;83.46;100878.84;5005935;28;20041;-73
2022/06/19 10:24:21;;;;;;;14.38;2.97;;;;;;;16.20;79.80;100878.38;5003450;28;20068;-74
2022/06/19 10:26:53;;;;;;;9.35;2.30;;;;;;;16.28;76.14;100869.69;5006259;28;20076;-72
2022/06/19 10:29:49;;;;;;;9.57;2.55;;;;;;;16.34;74.97;100873.28;5003693;28;20105;-75
2022/06/19 10:32:28;;;;;;;11.10;2.45;;;;;;;16.43;75.38;100888.09;5007026;28;20046;-73
2022/06/19 10:35:22;;;;;;;8.02;1.85;;;;;;;16.55;74.18;100907.84;5009970;28;20032;-72
2022/06/19 10:38:22;;;;;;;11.38;2.30;;;;;;;16.61;73.34;100900.50;5002149;28;20031;-74
2022/06/19 10:41:08;;;;;;;9.43;2.35;;;;;;;16.77;74.38;100885.00;4992960;28;20022;-77
2022/06/19 10:43:59;;;;;;;7.55;2.20;;;;;;;16.99;73.73;100888.41;4998632;28;20042;-74
2022/06/19 10:46:24;;;;;;;8.03;1.73;;;;;;;17.12;67.70;100889.84;5013832;28;20030;-75
2022/06/19 10:49:01;;;;;;;6.05;1.73;;;;;;;17.22;66.44;100888.22;5004767;28;20037;-74
2022/06/19 10:51:44;;;;;;;6.22;1.75;;;;;;;17.38;67.83;100900.84;5000243;28;20109;-74
2022/06/19 10:54:20;;;;;;;7.70;1.95;;;;;;;17.49;67.17;100916.19;5015205;28;20504;-73
2022/06/19 10:57:13;;;;;;;6.50;2.10;;;;;;;17.54;65.91;100927.16;4997731;28;20038;-71
2022/06/19 10:59:38;;;;;;;4.18;1.80;;;;;;;17.53;62.60;100941.94;5002724;28;20026;-74
2022/06/19 11:05:05;;;;;;;6.40;1.63;;;;;;;17.47;61.16;100943.00;5019000;28;20048;-79
2022/06/19 11:07:31;;;;;;;6.70;1.65;;;;;;;17.57;62.85;100946.84;5016931;28;20038;-77
2022/06/19 11:10:05;;;;;;;7.82;2.00;;;;;;;17.59;62.19;100939.19;5019985;28;21040;-77
2022/06/19 11:12:37;;;;;;;7.00;1.73;;;;;;;17.74;62.64;100944.72;5020733;28;20040;-74
2022/06/19 11:15:08;;;;;;;6.15;1.88;;;;;;;17.88;62.01;100942.28;5001549;28;20037;-74
2022/06/19 11:17:40;;;;;;;8.73;1.65;;;;;;;17.93;61.76;100946.97;5016129;28;20029;-77
2022/06/19 11:20:27;;;;;;;4.80;1.67;;;;;;;18.06;63.69;100976.56;5017619;28;20033;-74
2022/06/19 11:23:05;;;;;;;5.82;2.22;;;;;;;18.09;64.16;100977.91;5019303;28;20040;-75
2022/06/19 11:25:41;;;;;;;8.35;2.08;;;;;;;18.10;63.67;100969.44;5022799;28;20029;-74
2022/06/19 11:28:14;;;;;;;4.68;1.70;;;;;;;18.14;63.64;100965.03;5018053;28;20040;-75
2022/06/19 11:30:45;;;;;;;5.53;1.95;;;;;;;18.21;61.59;100981.22;5015822;28;20037;-76
2022/06/19 11:33:13;;;;;;;;;;;;;;;18.37;62.98;100976.56;5013365;28;20041;-74
2022/06/19 11:35:43;;;;;;;7.07;1.90;;;;;;;18.35;61.18;100976.03;5018087;28;19920;-73
2022/06/19 11:38:10;;;;;;;9.25;2.10;;;;;;;18.43;62.16;100989.16;5012782;28;20037;-74
2022/06/19 11:40:42;;;;;;;5.68;2.08;;;;;;;18.46;61.26;100990.53;5017297;28;20733;-74
2022/06/19 11:43:26;;;;;;;6.85;1.98;;;;;;;18.52;62.93;100971.06;5005252;28;20057;-72
2022/06/19 11:49:36;;;;;;;8.02;1.90;;;;;;;18.72;59.28;100988.56;5018467;28;20777;-73